Time;durP1;ratioP1;P1;durP2;ratioP2;P2;SDS_P1;SDS_P2;PMS_P1;PMS_P2;Temp;Humidity;BMP_temperature;BMP_pressure;BME280_temperature;BME280_humidity;BME280_pressure;Samples;Min_cycle;Max_cycle;Signal;HPM_P1;HPM_P2
2024/04/22 00:01:34;;;;;;;13.17;4.97;;;;;;;2.37;100.00;101341.69;4860372;57;1136740;-81
2024/04/22 00:06:43;;;;;;;15.00;6.67;;;;;;;2.25;100.00;101346.43;4949455;58;1138859;-79
2024/04/22 00:11:46;;;;;;;15.08;5.40;;;;;;;2.09;100.00;101347.34;4962674;57;1139056;-80
2024/04/22 00:16:52;;;;;;;13.50;6.17;;;;;;;2.02;100.00;101342.73;4983282;57;1138647;-78
2024/04/22 00:21:57;;;;;;;8.40;4.17;;;;;;;1.94;100.00;101336.90;4963903;58;1138516;-78
2024/04/22 00:27:03;;;;;;;7.13;4.00;;;;;;;1.90;100.00;101332.66;5020786;57;1136393;-79
2024/04/22 00:32:08;;;;;;;4.85;3.15;;;;;;;1.86;100.00;101320.59;5056857;57;1137079;-79
2024/04/22 00:37:14;;;;;;;8.68;3.05;;;;;;;1.84;100.00;101326.75;4964521;58;1136360;-79
2024/04/22 00:42:19;;;;;;;6.55;2.42;;;;;;;1.78;100.00;101321.73;4971484;57;1136771;-79
2024/04/22 00:47:26;;;;;;;26.20;5.90;;;;;;;1.79;100.00;101313.87;4976948;58;1136831;-79
2024/04/22 00:52:32;;;;;;;17.43;5.90;;;;;;;1.80;100.00;101323.84;4950359;56;1139093;-79
2024/04/22 00:57:40;;;;;;;6.40;2.00;;;;;;;1.74;100.00;101318.34;4922611;57;1138769;-79
2024/04/22 01:02:48;;;;;;;5.22;2.67;;;;;;;1.76;100.00;101321.77;5051787;56;1136721;-79
2024/04/22 01:07:55;;;;;;;5.97;2.80;;;;;;;1.85;100.00;101319.34;5112246;56;1136489;-78
2024/04/22 01:13:01;;;;;;;4.30;2.43;;;;;;;1.88;100.00;101317.50;5044520;55;1136695;-78
2024/04/22 01:18:08;;;;;;;1.98;1.75;;;;;;;1.85;100.00;101318.03;5060202;57;1136588;-79
2024/04/22 01:23:14;;;;;;;3.42;2.37;;;;;;;1.86;100.00;101322.35;5049603;56;1136769;-79
2024/04/22 01:28:19;;;;;;;4.80;2.85;;;;;;;1.76;100.00;101321.33;5045163;57;1136437;-78
2024/04/22 01:33:25;;;;;;;4.80;2.10;;;;;;;1.74;100.00;101318.34;5045167;57;1136359;-80
2024/04/22 01:38:30;;;;;;;3.17;2.20;;;;;;;1.74;100.00;101313.13;5064296;55;1136425;-78
2024/04/22 01:43:37;;;;;;;5.63;2.57;;;;;;;1.79;100.00;101320.39;5044385;56;1136768;-79
2024/04/22 01:48:43;;;;;;;8.20;2.30;;;;;;;1.74;100.00;101319.66;5033367;57;1136899;-78
2024/04/22 01:53:48;;;;;;;3.37;2.17;;;;;;;1.66;100.00;101315.12;5010185;56;1136691;-79
2024/04/22 01:58:54;;;;;;;5.25;2.62;;;;;;;1.65;100.00;101310.80;4964172;58;1136603;-79
2024/04/22 02:03:59;;;;;;;7.00;2.00;;;;;;;1.67;100.00;101311.17;4945761;58;1136620;-78
2024/04/22 02:09:05;;;;;;;3.63;2.17;;;;;;;1.61;100.00;101310.47;4996471;57;1137183;-80
2024/04/22 02:14:10;;;;;;;2.97;2.57;;;;;;;1.55;100.00;101306.27;5054675;56;1136817;-80
2024/04/22 02:19:16;;;;;;;5.73;2.83;;;;;;;1.55;100.00;101308.02;5045939;56;1136776;-80
2024/04/22 02:24:21;;;;;;;8.18;2.70;;;;;;;1.62;100.00;101301.30;5045631;57;1136457;-80
2024/04/22 02:29:27;;;;;;;10.30;3.37;;;;;;;1.64;100.00;101296.91;5065653;57;1136483;-79
2024/04/22 02:34:33;;;;;;;2.90;2.37;;;;;;;1.61;100.00;101296.13;4972334;57;1138617;-79
2024/04/22 02:39:38;;;;;;;6.00;2.57;;;;;;;1.59;100.00;101292.71;4963436;57;1136883;-78
2024/04/22 02:44:44;;;;;;;5.23;2.67;;;;;;;1.57;100.00;101286.23;4963814;58;1136793;-80
2024/04/22 02:49:49;;;;;;;5.72;3.02;;;;;;;1.54;100.00;101283.70;4966675;58;1136742;-79
2024/04/22 02:54:55;;;;;;;4.97;2.83;;;;;;;1.52;100.00;101282.92;4885985;57;1136368;-79
2024/04/22 03:00:00;;;;;;;4.77;2.70;;;;;;;1.51;100.00;101285.12;4912721;57;1136708;-79
2024/04/22 03:05:07;;;;;;;4.73;2.33;;;;;;;1.53;100.00;101282.00;4965931;57;1136687;-79
2024/04/22 03:10:12;;;;;;;3.40;2.97;;;;;;;1.54;100.00;101274.58;4958976;57;1136607;-79
2024/04/22 03:15:18;;;;;;;4.27;2.00;;;;;;;1.52;100.00;101271.64;4854142;58;1136541;-78
2024/04/22 03:20:23;;;;;;;3.52;2.20;;;;;;;1.51;100.00;101261.66;4759248;60;1136476;-80
2024/04/22 03:25:29;;;;;;;4.17;2.17;;;;;;;1.51;100.00;101266.02;4905471;58;1136366;-79
2024/04/22 03:30:34;;;;;;;4.47;2.33;;;;;;;1.50;100.00;101258.64;5005061;56;1136382;-78
2024/04/22 03:35:40;;;;;;;4.63;1.80;;;;;;;1.49;100.00;101256.08;5011951;57;1136717;-79
2024/04/22 03:40:45;;;;;;;1.67;1.50;;;;;;;1.52;100.00;101251.64;4995648;57;1136369;-79
2024/04/22 03:51:14;;;;;;;2.22;2.02;;;;;;;1.54;100.00;101256.33;5009757;57;1136571;-85
2024/04/22 03:56:19;;;;;;;5.53;2.60;;;;;;;1.52;100.00;101259.91;4968626;57;1136686;-82
2024/04/22 04:01:25;;;;;;;7.83;3.73;;;;;;;1.62;100.00;101263.50;4962171;56;1136532;-78
2024/04/22 04:06:30;;;;;;;6.27;3.13;;;;;;;1.62;100.00;101265.25;5043865;57;1136960;-79
2024/04/22 04:11:39;;;;;;;4.37;2.90;;;;;;;1.61;100.00;101262.23;4988762;57;1136629;-80
2024/04/22 04:16:45;;;;;;;3.43;2.30;;;;;;;1.62;100.00;101266.56;5128236;55;1136822;-79
2024/04/22 04:21:51;;;;;;;7.42;2.90;;;;;;;1.61;100.00;101273.97;5053358;56;1136556;-79
2024/04/22 04:26:56;;;;;;;3.03;2.43;;;;;;;1.60;100.00;101267.05;5075274;55;1136579;-79
2024/04/22 04:32:02;;;;;;;10.50;4.13;;;;;;;1.60;100.00;101264.44;4970828;57;1136362;-79
2024/04/22 04:37:07;;;;;;;5.43;2.23;;;;;;;1.61;100.00;101259.19;4970008;57;1138433;-80
2024/04/22 04:42:13;;;;;;;2.30;2.10;;;;;;;1.67;100.00;101253.80;4956962;57;1136742;-79
2024/04/22 04:47:18;;;;;;;2.10;1.30;;;;;;;1.71;100.00;101254.55;4897722;57;1139341;-79
2024/04/22 04:52:24;;;;;;;3.63;1.70;;;;;;;1.73;100.00;101258.82;4807953;57;1136740;-79
2024/04/22 04:57:29;;;;;;;13.10;3.93;;;;;;;1.67;100.00;101262.08;4969432;57;1136750;-79
2024/04/22 05:02:35;;;;;;;5.00;3.20;;;;;;;1.66;100.00;101261.67;4960657;57;1138737;-80
2024/04/22 05:07:41;;;;;;;5.90;2.17;;;;;;;1.68;100.00;101265.09;4959721;57;1136660;-80
2024/04/22 05:12:48;;;;;;;9.75;3.17;;;;;;;1.74;100.00;101263.14;5010743;57;1136734;-79
2024/04/22 05:17:53;;;;;;;4.70;2.55;;;;;;;1.76;100.00;101265.25;5064544;57;1136772;-79
2024/04/22 05:22:59;;;;;;;5.57;2.37;;;;;;;1.80;100.00;101270.39;4977641;57;1136650;-78
2024/04/22 05:28:05;;;;;;;4.57;2.00;;;;;;;1.82;100.00;101265.54;5016536;57;1136748;-79
2024/04/22 05:38:34;;;;;;;3.02;1.95;;;;;;;1.87;100.00;101277.11;4964184;57;1136678;-79
2024/04/22 05:43:40;;;;;;;6.83;3.17;;;;;;;1.90;100.00;101267.45;4963294;57;1136588;-79
2024/04/22 05:48:45;;;;;;;6.87;3.90;;;;;;;1.94;100.00;101268.22;4992121;57;1136587;-80
2024/04/22 05:53:51;;;;;;;4.83;3.17;;;;;;;2.00;100.00;101264.95;5020825;57;1136894;-79
2024/04/22 05:58:56;;;;;;;14.50;4.70;;;;;;;2.05;100.00;101268.74;4952736;57;1137004;-79
2024/04/22 06:04:08;;;;;;;6.73;3.73;;;;;;;2.04;100.00;101274.41;4975415;57;1138637;-78
2024/04/22 06:09:13;;;;;;;4.20;2.87;;;;;;;2.02;100.00;101273.59;4981206;58;1136540;-81
2024/04/22 06:14:18;;;;;;;7.42;3.36;;;;;;;1.96;100.00;101269.89;5033074;56;1142311;-80
2024/04/22 06:19:24;;;;;;;44.37;11.07;;;;;;;1.95;100.00;101268.18;4988675;57;1136521;-81
2024/04/22 06:24:33;;;;;;;23.70;6.08;;;;;;;1.98;100.00;101272.00;4863654;58;1140676;-82
2024/04/22 06:29:39;;;;;;;4.50;2.90;;;;;;;2.03;100.00;101277.06;4789685;59;1138740;-83
2024/04/22 06:34:49;;;;;;;7.43;3.30;;;;;;;2.13;100.00;101280.27;4796682;59;1136262;-81
2024/04/22 06:39:55;;;;;;;16.97;4.37;;;;;;;2.17;100.00;101287.93;4865217;58;1136420;-85
2024/04/22 06:45:00;;;;;;;11.67;4.77;;;;;;;2.22;100.00;101287.34;4825954;59;1138632;-80
2024/04/22 06:50:06;;;;;;;7.90;3.73;;;;;;;2.34;100.00;101296.09;4899287;58;1138694;-83
2024/04/22 06:55:12;;;;;;;10.53;3.00;;;;;;;2.38;100.00;101289.03;4866111;59;1136641;-83
2024/04/22 07:00:17;;;;;;;9.97;3.80;;;;;;;2.42;100.00;101301.09;4946592;57;1138949;-83
2024/04/22 07:05:23;;;;;;;3.50;2.00;;;;;;;2.47;100.00;101290.89;4985215;56;1136735;-82
2024/04/22 07:10:29;;;;;;;5.95;2.27;;;;;;;2.57;100.00;101290.16;4961352;57;1136811;-80
2024/04/22 07:15:34;;;;;;;4.30;2.52;;;;;;;2.60;100.00;101296.56;4985341;56;1136834;-81
2024/04/22 07:20:40;;;;;;;6.87;4.03;;;;;;;2.56;100.00;101294.98;4959092;57;1136533;-83
2024/04/22 07:25:45;;;;;;;5.67;3.40;;;;;;;2.56;100.00;101300.20;5010148;56;1136616;-84
2024/04/22 07:30:51;;;;;;;2.07;1.70;;;;;;;2.50;100.00;101295.61;5044280;56;1136623;-83
2024/04/22 07:36:03;;;;;;;8.78;3.30;;;;;;;2.47;100.00;101300.02;5024587;56;1136560;-81
2024/04/22 07:41:09;;;;;;;4.90;2.23;;;;;;;2.53;100.00;101302.05;5024223;56;1136552;-80
2024/04/22 07:46:15;;;;;;;4.23;2.73;;;;;;;2.53;100.00;101302.05;5044211;56;1136871;-82
2024/04/22 07:51:21;;;;;;;4.40;1.70;;;;;;;2.57;100.00;101310.20;5055283;56;1146249;-80
2024/04/22 07:56:27;;;;;;;3.83;1.70;;;;;;;2.61;100.00;101310.02;5028396;56;1136612;-78
2024/04/22 08:01:33;;;;;;;2.40;1.70;;;;;;;2.66;100.00;101310.74;4995350;56;1136793;-78
2024/04/22 08:06:40;;;;;;;3.37;2.00;;;;;;;2.65;100.00;101311.64;5066269;55;1136622;-81
2024/04/22 08:11:46;;;;;;;2.83;1.70;;;;;;;2.62;100.00;101311.73;5092954;55;1136641;-79
2024/04/22 08:16:52;;;;;;;9.63;3.30;;;;;;;2.65;100.00;101317.31;4986279;56;1136616;-78
2024/04/22 08:21:57;;;;;;;2.53;1.37;;;;;;;2.68;100.00;101316.77;4949411;56;1136430;-77
2024/04/22 08:27:04;;;;;;;4.13;1.80;;;;;;;2.70;100.00;101318.89;4948314;57;1136952;-80
2024/04/22 08:32:10;;;;;;;5.63;2.13;;;;;;;2.78;100.00;101311.64;4969130;57;1136536;-79
2024/04/22 08:37:16;;;;;;;3.98;1.82;;;;;;;2.87;100.00;101305.73;4956323;57;1136687;-82
2024/04/22 08:42:23;;;;;;;2.95;1.40;;;;;;;2.95;100.00;101303.25;5014412;57;1136771;-78
2024/04/22 08:47:29;;;;;;;5.50;2.37;;;;;;;3.04;100.00;101296.88;5056101;56;1136470;-81
2024/04/22 08:52:36;;;;;;;3.53;2.00;;;;;;;3.12;100.00;101298.30;5064311;56;1136549;-78
2024/04/22 08:57:41;;;;;;;1.87;1.47;;;;;;;3.16;100.00;101301.22;5098806;56;1136665;-78
2024/04/22 09:02:47;;;;;;;2.42;2.10;;;;;;;3.15;100.00;101301.27;5100320;56;1136687;-78
2024/04/22 09:08:04;;;;;;;5.30;2.00;;;;;;;3.17;100.00;101302.08;5115777;56;1136233;-78
2024/04/22 09:13:04;;;;;;;1.95;1.47;;;;;;;3.27;100.00;101291.69;5069426;56;1136678;-81
2024/04/22 09:18:13;;;;;;;1.93;1.70;;;;;;;3.25;100.00;101288.27;5099259;56;1136554;-81
2024/04/22 09:23:19;;;;;;;2.00;1.20;;;;;;;3.29;100.00;101286.41;5118593;56;1136583;-81
2024/04/22 09:28:30;;;;;;;0.85;0.53;;;;;;;3.46;100.00;101284.91;5099280;56;1137088;-79
2024/04/22 09:33:37;;;;;;;1.87;0.90;;;;;;;3.58;100.00;101287.53;5099795;56;1136574;-79
2024/04/22 09:38:44;;;;;;;0.97;0.80;;;;;;;3.83;100.00;101279.61;5055785;56;1136611;-78
2024/04/22 09:43:53;;;;;;;1.40;1.30;;;;;;;4.16;100.00;101278.78;5035046;57;1136665;-81
2024/04/22 09:49:00;;;;;;;1.23;1.13;;;;;;;4.33;100.00;101280.29;5015278;57;1136580;-80
2024/04/22 09:54:06;;;;;;;2.00;1.63;;;;;;;4.29;100.00;101277.84;5015048;57;1136672;-78
2024/04/22 09:59:14;;;;;;;2.33;1.50;;;;;;;4.24;100.00;101271.50;5035097;57;1136211;-79
2024/04/22 10:04:20;;;;;;;2.40;2.13;;;;;;;4.39;100.00;101275.27;5048744;56;1136926;-82
2024/04/22 10:09:25;;;;;;;3.35;2.10;;;;;;;4.50;100.00;101263.91;4994293;56;1139301;-79
2024/04/22 10:14:31;;;;;;;2.07;1.67;;;;;;;4.63;100.00;101264.25;5001659;56;1136710;-82
2024/04/22 10:19:38;;;;;;;9.27;1.70;;;;;;;4.57;100.00;101270.61;5024305;56;1136801;-78
2024/04/22 10:24:43;;;;;;;2.40;2.20;;;;;;;4.50;100.00;101265.21;4958787;57;1136624;-81
2024/04/22 10:29:50;;;;;;;3.55;2.05;;;;;;;4.45;100.00;101269.77;5041118;57;1136878;-77
2024/04/22 10:34:56;;;;;;;3.77;2.00;;;;;;;4.40;100.00;101262.12;4943347;57;1136737;-81
2024/04/22 10:40:01;;;;;;;4.53;2.30;;;;;;;4.31;100.00;101263.78;4928046;58;1136319;-80
2024/04/22 10:45:07;;;;;;;2.37;1.50;;;;;;;4.26;100.00;101265.75;4887507;57;1136529;-79
2024/04/22 10:50:18;;;;;;;2.83;1.50;;;;;;;4.26;100.00;101269.68;4979750;57;1136581;-81
2024/04/22 10:55:23;;;;;;;1.80;1.70;;;;;;;4.23;100.00;101262.80;4843945;58;1136666;-77
2024/04/22 11:00:29;;;;;;;1.67;1.55;;;;;;;4.22;100.00;101264.16;5014345;57;1136541;-78
2024/04/22 11:05:35;;;;;;;4.22;2.62;;;;;;;4.22;100.00;101269.39;5043011;57;1136366;-80
2024/04/22 11:10:40;;;;;;;2.90;2.53;;;;;;;4.19;100.00;101273.44;5040507;57;1136416;-80
2024/04/22 11:15:46;;;;;;;4.37;2.35;;;;;;;4.18;100.00;101280.44;5040673;56;1136657;-80
2024/04/22 11:20:51;;;;;;;2.30;1.80;;;;;;;4.13;100.00;101291.53;5060304;56;1136808;-77
2024/04/22 11:25:57;;;;;;;3.40;2.60;;;;;;;4.10;100.00;101291.67;5040580;56;1136332;-77
2024/04/22 11:31:03;;;;;;;3.40;2.20;;;;;;;4.14;100.00;101291.93;5000940;57;1136769;-79
2024/04/22 11:36:12;;;;;;;4.87;2.63;;;;;;;4.17;100.00;101297.51;4978445;58;1136638;-78
2024/04/22 11:41:19;;;;;;;5.58;3.00;;;;;;;4.17;100.00;101294.89;4975630;58;1136646;-80
2024/04/22 11:46:25;;;;;;;9.75;3.77;;;;;;;4.16;100.00;101295.34;4938705;57;1136589;-78
2024/04/22 11:51:30;;;;;;;4.17;2.30;;;;;;;4.13;100.00;101302.00;5055021;57;1136522;-79
2024/04/22 11:56:37;;;;;;;3.70;2.27;;;;;;;4.13;100.00;101302.00;5033641;57;1146285;-79
2024/04/22 12:01:43;;;;;;;5.03;2.10;;;;;;;4.10;100.00;101292.98;4952844;57;1136639;-78
2024/04/22 12:06:49;;;;;;;7.63;3.50;;;;;;;4.09;100.00;101293.04;4948422;57;1136738;-80
2024/04/22 12:11:54;;;;;;;1.97;1.87;;;;;;;4.17;100.00;101292.27;4968717;56;1136660;-79
2024/04/22 12:17:00;;;;;;;3.20;2.47;;;;;;;4.20;100.00;101288.23;5019321;57;1137023;-79
2024/04/22 12:22:05;;;;;;;10.87;2.90;;;;;;;4.23;100.00;101289.43;5033867;56;1136711;-80
2024/04/22 12:27:11;;;;;;;4.00;2.83;;;;;;;4.22;100.00;101285.10;5053986;56;1139117;-80
2024/04/22 12:32:17;;;;;;;5.70;2.00;;;;;;;4.19;100.00;101285.22;4991424;57;1136615;-80
2024/04/22 12:37:22;;;;;;;6.57;2.70;;;;;;;4.11;100.00;101283.36;5038548;57;1136716;-80
2024/04/22 12:42:28;;;;;;;8.10;2.70;;;;;;;4.13;100.00;101282.37;5064105;57;1136228;-80
2024/04/22 12:52:57;;;;;;;2.70;2.02;;;;;;;4.29;100.00;101282.62;5042888;56;1138529;-80
2024/04/22 12:58:02;;;;;;;3.90;3.17;;;;;;;4.27;100.00;101284.94;5012898;57;1136494;-79
2024/04/22 13:03:08;;;;;;;6.90;4.00;;;;;;;4.24;100.00;101273.66;5033859;57;1136314;-81
2024/04/22 13:08:14;;;;;;;2.97;2.43;;;;;;;4.27;100.00;101274.46;5013728;57;1136320;-80
2024/04/22 13:13:21;;;;;;;6.14;3.58;;;;;;;4.37;100.00;101274.48;5089736;57;1136642;-78
2024/04/22 13:18:26;;;;;;;4.15;2.40;;;;;;;4.47;100.00;101278.42;5115390;56;1136918;-78
2024/04/22 13:23:34;;;;;;;80.47;40.03;;;;;;;4.64;100.00;101275.13;5054053;56;1136413;-79
2024/04/22 13:28:39;;;;;;;211.70;149.43;;;;;;;4.71;100.00;101270.89;5044429;56;1143456;-79
2024/04/22 13:33:45;;;;;;;27.73;19.80;;;;;;;4.68;100.00;101272.33;4968397;58;1145141;-81
2024/04/22 13:38:51;;;;;;;147.83;77.77;;;;;;;4.73;100.00;101275.62;4975348;57;1140764;-79
2024/04/22 13:43:56;;;;;;;83.75;42.00;;;;;;;4.78;100.00;101272.78;5044701;57;1142932;-80
2024/04/22 13:49:02;;;;;;;3.77;2.70;;;;;;;4.78;100.00;101274.09;5017605;57;1140838;-80
2024/04/22 13:54:07;;;;;;;3.27;2.20;;;;;;;4.77;100.00;101280.25;5029644;57;1136649;-78
2024/04/22 13:59:13;;;;;;;11.83;9.67;;;;;;;4.79;100.00;101275.34;5100149;56;1136676;-81
2024/04/22 14:04:19;;;;;;;5.17;2.83;;;;;;;4.84;100.00;101283.03;4953889;58;1138955;-78
2024/04/22 14:09:24;;;;;;;27.80;15.40;;;;;;;4.86;100.00;101273.34;4986459;58;1136641;-82
2024/04/22 14:14:30;;;;;;;5.27;2.50;;;;;;;4.91;100.00;101270.04;4970430;57;1150319;-80
2024/04/22 14:19:36;;;;;;;11.05;2.20;;;;;;;4.90;100.00;101267.87;4929807;58;1136584;-79
2024/04/22 14:24:42;;;;;;;3.83;2.20;;;;;;;4.95;100.00;101269.86;4959353;58;1138673;-81
2024/04/22 14:29:47;;;;;;;3.57;2.03;;;;;;;5.00;100.00;101267.05;4975042;58;1136670;-82
2024/04/22 14:34:53;;;;;;;3.40;1.93;;;;;;;5.07;100.00;101278.96;4805032;59;1136597;-81
2024/04/22 14:39:58;;;;;;;19.80;8.97;;;;;;;5.07;100.00;101278.11;4799790;59;1136570;-80
2024/04/22 14:45:04;;;;;;;4.37;2.73;;;;;;;5.10;100.00;101281.91;4891927;59;1138751;-81
2024/04/22 14:50:10;;;;;;;1.97;1.87;;;;;;;5.10;100.00;101281.45;4846804;58;1136580;-80
2024/04/22 14:55:16;;;;;;;7.47;2.63;;;;;;;5.08;100.00;101279.36;4864280;58;1136910;-80
2024/04/22 15:00:21;;;;;;;2.73;2.10;;;;;;;5.06;100.00;101283.81;4942534;58;1136912;-81
2024/04/22 15:05:29;;;;;;;6.33;3.35;;;;;;;4.98;100.00;101278.05;4830292;58;1136497;-81
2024/04/22 15:10:43;;;;;;;3.37;2.50;;;;;;;4.97;100.00;101279.42;4842230;59;1136674;-81
2024/04/22 15:15:49;;;;;;;6.20;3.80;;;;;;;4.89;100.00;101284.97;4875591;57;1136929;-80
2024/04/22 15:20:54;;;;;;;7.50;2.70;;;;;;;4.91;100.00;101292.32;4991384;58;1136734;-80
2024/04/22 15:26:00;;;;;;;5.20;3.23;;;;;;;4.91;100.00;101291.01;4972306;58;1136614;-80
2024/04/22 15:31:05;;;;;;;2.87;2.00;;;;;;;4.87;100.00;101285.53;4892138;58;1136679;-81
2024/04/22 15:36:11;;;;;;;7.10;2.47;;;;;;;4.83;100.00;101286.56;4991210;58;1136479;-80
2024/04/22 15:41:16;;;;;;;3.80;2.93;;;;;;;4.76;100.00;101286.41;4892544;58;1136869;-80
2024/04/22 15:46:22;;;;;;;5.20;2.43;;;;;;;4.72;100.00;101287.02;5016898;57;1136772;-79
2024/04/22 15:51:27;;;;;;;5.67;3.27;;;;;;;4.70;100.00;101287.53;5068538;57;1136679;-81
2024/04/22 15:56:34;;;;;;;6.70;3.63;;;;;;;4.74;100.00;101282.53;5045686;57;1136517;-81
2024/04/22 16:01:39;;;;;;;4.63;2.67;;;;;;;4.74;100.00;101280.38;4980776;57;1146097;-79
2024/04/22 16:06:46;;;;;;;3.03;2.70;;;;;;;4.69;100.00;101288.44;5052314;57;1136753;-81
2024/04/22 16:11:51;;;;;;;2.87;1.87;;;;;;;4.68;100.00;101285.88;5040333;57;1136501;-81
2024/04/22 16:16:57;;;;;;;3.37;2.40;;;;;;;4.66;100.00;101291.64;4959037;58;1136414;-80
2024/04/22 16:22:02;;;;;;;5.87;3.27;;;;;;;4.63;100.00;101291.30;4938990;57;1136697;-82
2024/04/22 16:27:08;;;;;;;4.47;2.60;;;;;;;4.65;100.00;101288.63;4989637;58;1136776;-81
2024/04/22 16:32:14;;;;;;;3.73;2.73;;;;;;;4.65;100.00;101284.69;4971750;57;1136573;-81
2024/04/22 16:37:19;;;;;;;3.63;2.53;;;;;;;4.60;100.00;101290.96;4892319;59;1136827;-80
2024/04/22 16:42:26;;;;;;;12.13;8.20;;;;;;;4.61;100.00;101290.50;4990840;57;1136774;-81
2024/04/22 16:47:31;;;;;;;3.70;2.92;;;;;;;4.58;100.00;101288.03;4952479;58;1138853;-80
2024/04/22 16:52:37;;;;;;;5.20;2.97;;;;;;;4.58;100.00;101284.92;5024381;57;1136758;-79
2024/04/22 16:57:42;;;;;;;5.87;3.57;;;;;;;4.56;100.00;101288.09;5025178;56;1136951;-80
2024/04/22 17:02:48;;;;;;;7.07;4.40;;;;;;;4.53;100.00;101277.73;4991823;57;1136659;-81
2024/04/22 17:07:53;;;;;;;5.73;3.70;;;;;;;4.53;100.00;101294.77;4972007;57;1136977;-82
2024/04/22 17:12:59;;;;;;;6.13;3.87;;;;;;;4.52;100.00;101296.12;5004168;57;1136645;-82
2024/04/22 17:18:05;;;;;;;10.33;5.37;;;;;;;4.49;100.00;101293.63;4944432;58;1136800;-81
2024/04/22 17:23:21;;;;;;;7.03;4.57;;;;;;;4.50;100.00;101298.80;4925372;58;1138826;-81
2024/04/22 17:28:27;;;;;;;10.27;5.37;;;;;;;4.49;100.00;101298.41;5066424;56;1136712;-80
2024/04/22 17:33:37;;;;;;;85.45;33.70;;;;;;;4.43;100.00;101303.05;5053952;56;1138938;-82
2024/04/22 17:38:39;;;;;;;81.30;35.78;;;;;;;4.34;100.00;101307.33;5018960;56;1140899;-79
2024/04/22 17:43:45;;;;;;;22.90;11.37;;;;;;;4.30;100.00;101311.83;5031201;56;1141006;-79
2024/04/22 17:48:51;;;;;;;15.30;7.43;;;;;;;4.30;100.00;101313.13;5036172;56;1140902;-79
2024/04/22 17:53:58;;;;;;;13.03;6.27;;;;;;;4.30;100.00;101313.13;5024358;57;1138477;-81
2024/04/22 17:59:04;;;;;;;10.00;6.10;;;;;;;4.28;100.00;101314.13;5028656;56;1138797;-81
2024/04/22 18:04:10;;;;;;;14.50;7.27;;;;;;;4.37;100.00;101320.31;5050926;56;1140690;-81
2024/04/22 18:09:15;;;;;;;16.13;9.43;;;;;;;4.38;100.00;101317.63;5071224;56;1139226;-82
2024/04/22 18:14:21;;;;;;;23.03;11.00;;;;;;;4.37;100.00;101327.70;5060482;56;1138705;-81
2024/04/22 18:19:27;;;;;;;15.93;7.33;;;;;;;4.35;100.00;101336.08;5063877;56;1140792;-80
2024/04/22 18:24:32;;;;;;;124.77;102.73;;;;;;;4.31;100.00;101338.86;5086364;56;1138848;-82
2024/04/22 18:29:38;;;;;;;22.10;14.53;;;;;;;4.24;100.00;101339.13;5064287;56;1144912;-81
2024/04/22 18:34:44;;;;;;;139.72;100.30;;;;;;;4.21;100.00;101347.08;5062043;56;1141058;-79
2024/04/22 18:39:49;;;;;;;12.60;7.73;;;;;;;4.17;100.00;101347.25;5046422;56;1145044;-82
2024/04/22 18:44:55;;;;;;;24.77;8.17;;;;;;;4.22;100.00;101346.63;5099724;56;1138624;-80
2024/04/22 18:50:01;;;;;;;15.30;6.60;;;;;;;4.23;100.00;101347.89;5093078;56;1138881;-82
2024/04/22 18:55:07;;;;;;;19.60;7.10;;;;;;;4.19;100.00;101349.36;5039549;56;1139086;-81
2024/04/22 19:00:13;;;;;;;33.03;11.73;;;;;;;4.10;100.00;101348.41;5091128;56;1138781;-81
2024/04/22 19:05:19;;;;;;;40.90;14.63;;;;;;;4.05;100.00;101342.48;5109048;56;1140803;-81
2024/04/22 19:10:25;;;;;;;21.67;10.23;;;;;;;4.08;100.00;101348.47;5082106;56;1141159;-81
2024/04/22 19:15:30;;;;;;;24.53;10.57;;;;;;;4.10;100.00;101347.95;5065205;57;1140774;-82
2024/04/22 19:20:36;;;;;;;29.42;10.55;;;;;;;4.11;100.00;101346.19;5027474;57;1141101;-79
2024/04/22 19:25:41;;;;;;;17.12;8.20;;;;;;;4.16;100.00;101339.85;4969668;57;1141169;-78
2024/04/22 19:30:47;;;;;;;65.42;20.23;;;;;;;4.24;100.00;101343.50;5007239;57;1140774;-80
2024/04/22 19:35:53;;;;;;;25.60;10.40;;;;;;;4.27;100.00;101343.84;5017605;57;1140926;-78
2024/04/22 19:40:58;;;;;;;33.90;13.70;;;;;;;4.24;100.00;101340.88;4971815;57;1140610;-82
2024/04/22 19:46:04;;;;;;;18.20;7.93;;;;;;;4.24;100.00;101341.73;5034693;57;1140866;-81
2024/04/22 19:51:09;;;;;;;22.50;8.60;;;;;;;4.21;100.00;101337.92;5119363;56;1138777;-80
2024/04/22 19:56:15;;;;;;;19.47;8.33;;;;;;;4.10;100.00;101342.72;5031434;56;1138592;-81
2024/04/22 20:01:21;;;;;;;22.73;8.87;;;;;;;4.10;100.00;101336.62;5020707;57;1138893;-78
2024/04/22 20:06:26;;;;;;;21.80;8.17;;;;;;;4.14;100.00;101332.50;5068865;56;1138636;-80
2024/04/22 20:11:32;;;;;;;18.43;8.80;;;;;;;4.16;100.00;101334.61;5069099;56;1138604;-77
2024/04/22 20:22:02;;;;;;;35.90;17.57;;;;;;;4.09;100.00;101339.70;5064706;55;1140908;-80
2024/04/22 20:27:05;;;;;;;24.87;12.33;;;;;;;4.21;100.00;101336.61;5088293;56;1141050;-81
2024/04/22 20:32:11;;;;;;;24.97;12.17;;;;;;;4.19;100.00;101342.81;5002958;57;1140798;-79
2024/04/22 20:37:16;;;;;;;49.10;17.03;;;;;;;4.15;100.00;101363.47;4921590;58;1140975;-77
2024/04/22 20:42:22;;;;;;;63.50;19.60;;;;;;;4.04;100.00;101344.70;5020151;57;1140795;-78
2024/04/22 20:47:27;;;;;;;56.57;20.20;;;;;;;3.96;100.00;101352.85;5011841;57;1208606;-79
2024/04/22 20:52:33;;;;;;;33.13;11.40;;;;;;;3.89;100.00;101348.73;5046087;57;1140911;-81
2024/04/22 20:57:38;;;;;;;11.85;6.37;;;;;;;3.84;100.00;101347.59;5008233;57;1141078;-83
2024/04/22 21:02:44;;;;;;;14.45;6.53;;;;;;;3.86;100.00;101346.23;4960370;57;1140827;-79
2024/04/22 21:07:50;;;;;;;13.67;6.10;;;;;;;3.80;100.00;101352.56;4969783;57;1140610;-80
2024/04/22 21:12:55;;;;;;;12.83;6.87;;;;;;;3.70;100.00;101347.69;4985986;57;1138828;-77
2024/04/22 21:18:01;;;;;;;10.60;6.23;;;;;;;3.63;100.00;101358.84;4962536;57;1138575;-79
2024/04/22 21:23:06;;;;;;;12.70;6.20;;;;;;;3.54;100.00;101359.16;5070475;56;1138765;-78
2024/04/22 21:28:12;;;;;;;57.33;17.20;;;;;;;3.53;100.00;101354.38;4959123;56;1138807;-78
2024/04/22 21:33:18;;;;;;;81.87;22.93;;;;;;;3.58;100.00;101359.91;4862185;58;1140758;-78
2024/04/22 21:38:24;;;;;;;68.30;17.60;;;;;;;3.58;100.00;101361.22;4935873;58;1140808;-80
2024/04/22 21:43:29;;;;;;;74.40;20.53;;;;;;;3.49;100.00;101359.79;4958906;57;1140732;-80
2024/04/22 21:48:35;;;;;;;23.13;7.70;;;;;;;3.40;100.00;101360.94;4921565;57;1140838;-79
2024/04/22 21:53:40;;;;;;;19.10;7.13;;;;;;;3.32;100.00;101359.52;4902724;58;1138868;-79
2024/04/22 21:59:40;;;;;;;16.87;7.17;;;;;;;3.24;100.00;101362.37;4872523;57;1138943;-79
2024/04/22 22:05:40;;;;;;;14.53;6.40;;;;;;;3.18;100.00;101371.30;4861293;58;1138765;-77
2024/04/22 22:10:46;;;;;;;11.45;6.87;;;;;;;3.06;100.00;101369.06;4876009;58;1138928;-78
2024/04/22 22:15:52;;;;;;;24.40;9.50;;;;;;;2.99;100.00;101373.25;4967316;57;1138937;-78
2024/04/22 22:20:57;;;;;;;12.60;6.50;;;;;;;2.92;100.00;101375.20;4935609;57;1138467;-77
2024/04/22 22:26:03;;;;;;;13.30;5.80;;;;;;;2.82;100.00;101379.02;4912198;58;1138725;-77
2024/04/22 22:31:08;;;;;;;15.80;6.70;;;;;;;2.64;100.00;101373.06;4967205;58;1138530;-78
2024/04/22 22:36:14;;;;;;;17.00;7.73;;;;;;;2.47;100.00;101367.91;4963584;58;1138544;-77
2024/04/22 22:41:22;;;;;;;16.43;7.43;;;;;;;2.48;100.00;101373.53;4963448;58;1138696;-77
2024/04/22 22:46:27;;;;;;;16.67;8.67;;;;;;;2.53;100.00;101366.88;4982602;57;1138975;-79
2024/04/22 22:51:32;;;;;;;16.83;8.30;;;;;;;2.56;100.00;101359.41;4964210;58;1138860;-80
2024/04/22 22:56:38;;;;;;;16.37;8.33;;;;;;;2.57;100.00;101358.05;4921042;58;1138785;-79
2024/04/22 23:01:43;;;;;;;18.87;9.05;;;;;;;2.51;100.00;101354.77;4890731;58;1138852;-78
2024/04/22 23:06:49;;;;;;;15.23;8.93;;;;;;;2.45;100.00;101351.43;4925005;58;1138496;-77
2024/04/22 23:11:54;;;;;;;13.53;7.73;;;;;;;2.42;100.00;101354.16;4917940;57;1138744;-78
2024/04/22 23:17:00;;;;;;;17.07;9.83;;;;;;;2.48;100.00;101350.48;4904656;57;1141142;-79
2024/04/22 23:22:05;;;;;;;18.50;8.97;;;;;;;2.62;100.00;101348.30;4907332;58;1138465;-78